createdAt,value
2017-05-29T00:04:40.728Z,1005.8
2017-05-29T00:14:49.698Z,1005.7
2017-05-29T00:24:58.618Z,1005.6
2017-05-29T00:35:07.614Z,1005.5
2017-05-29T00:45:16.635Z,1005.5
2017-05-29T00:55:25.679Z,1005.4
2017-05-29T01:05:34.754Z,1005.4
2017-05-29T01:15:43.889Z,1005.4
2017-05-29T01:25:53.121Z,1005.5
2017-05-29T01:36:02.336Z,1005.5
2017-05-29T01:46:11.554Z,1005.4
2017-05-29T01:56:20.786Z,1005.5
2017-05-29T02:06:29.981Z,1005.3
2017-05-29T02:16:39.206Z,1005.1
2017-05-29T02:26:48.460Z,1005.2
2017-05-29T02:36:57.693Z,1005.2
2017-05-29T02:47:06.963Z,1005.3
2017-05-29T02:57:16.270Z,1005.1
2017-05-29T03:07:25.635Z,1005.2
2017-05-29T03:17:34.929Z,1005.1
2017-05-29T03:27:44.221Z,1004.9
2017-05-29T03:37:53.553Z,1004.9
2017-05-29T03:48:02.827Z,1004.8
2017-05-29T03:58:12.110Z,1004.7
2017-05-29T04:08:21.386Z,1004.7
2017-05-29T04:18:30.624Z,1004.6
2017-05-29T04:28:39.706Z,1004.5
2017-05-29T04:38:48.694Z,1004.6
2017-05-29T04:48:57.564Z,1004.6
2017-05-29T04:59:06.344Z,1004.6
2017-05-29T05:09:15.041Z,1004.5
2017-05-29T05:19:23.658Z,1004.5
2017-05-29T05:29:32.133Z,1004.6
2017-05-29T05:39:40.453Z,1004.6
2017-05-29T05:49:48.649Z,1004.6
2017-05-29T05:59:56.721Z,1004.5
2017-05-29T06:10:04.773Z,1004.5
2017-05-29T06:20:12.904Z,1004.5
2017-05-29T06:30:20.937Z,1004.4
2017-05-29T06:40:28.984Z,1004.4
2017-05-29T06:50:36.975Z,1004.3
2017-05-29T07:00:44.895Z,1004.3
2017-05-29T07:10:52.741Z,1004.3
2017-05-29T07:21:00.498Z,1004.1
2017-05-29T07:31:08.129Z,1004.2
2017-05-29T07:41:15.641Z,1004.1
2017-05-29T07:51:23.047Z,1004.1
2017-05-29T08:01:30.307Z,1004.1
2017-05-29T08:11:37.469Z,1003.8
2017-05-29T08:21:44.506Z,1003.9
2017-05-29T08:31:51.480Z,1003.9
2017-05-29T08:41:58.481Z,1003.9
2017-05-29T08:52:05.486Z,1003.9
2017-05-29T09:02:12.467Z,1003.8
2017-05-29T09:12:19.481Z,1003.6
2017-05-29T09:22:26.535Z,1003.5
2017-05-29T09:32:33.465Z,1003.4
2017-05-29T09:42:40.226Z,1003.5
2017-05-29T09:52:47.022Z,1003.2
2017-05-29T10:02:53.974Z,1003.1
2017-05-29T10:13:00.962Z,1002.9
2017-05-29T10:23:07.769Z,1002.8
2017-05-29T10:33:14.439Z,1002.7
2017-05-29T10:43:21.222Z,1002.7
2017-05-29T10:53:28.004Z,1002.7
2017-05-29T11:03:34.702Z,1002.4
2017-05-29T11:13:41.441Z,1002.4
2017-05-29T11:23:48.089Z,1002.3
2017-05-29T11:33:54.691Z,1002.2
2017-05-29T11:44:01.287Z,1002
2017-05-29T11:54:07.844Z,1002
2017-05-29T12:04:14.407Z,1001.9
2017-05-29T12:14:20.919Z,1001.9
2017-05-29T12:24:27.393Z,1001.8
2017-05-29T12:34:33.818Z,1001.8
2017-05-29T12:44:40.095Z,1001.6
2017-05-29T12:54:46.337Z,1001.6
2017-05-29T13:04:52.546Z,1001.4
2017-05-29T13:14:58.874Z,1001.3
2017-05-29T13:25:04.936Z,1001.2
2017-05-29T13:35:11.100Z,1001.2
2017-05-29T13:45:17.289Z,1001
2017-05-29T13:55:23.491Z,1000.8
2017-05-29T14:05:29.646Z,1001
2017-05-29T14:15:35.734Z,1000.7
2017-05-29T14:25:41.762Z,1000.7
2017-05-29T14:35:47.715Z,1000.6
2017-05-29T14:45:53.631Z,1000.4
2017-05-29T14:55:59.487Z,1000.4
2017-05-29T15:06:05.418Z,1000.3
2017-05-29T15:16:11.561Z,1000.1
2017-05-29T15:26:17.899Z,1000.2
2017-05-29T15:36:24.323Z,1000.1
2017-05-29T15:46:30.550Z,1000.1
2017-05-29T15:56:36.640Z,1000
2017-05-29T16:06:42.568Z,999.8
2017-05-29T16:16:48.469Z,999.9
2017-05-29T16:26:54.363Z,999.8
2017-05-29T16:37:00.441Z,999.9
2017-05-29T16:47:06.546Z,999.8
2017-05-29T16:57:12.748Z,999.9
2017-05-29T17:07:19.040Z,999.9
2017-05-29T17:17:25.450Z,999.9
2017-05-29T17:27:32.100Z,999.8
2017-05-29T17:37:39.013Z,999.9
2017-05-29T17:47:46.051Z,1000.1
2017-05-29T17:57:53.319Z,1000
2017-05-29T18:08:00.703Z,1000.1
2017-05-29T18:18:08.189Z,1000.3
2017-05-29T18:28:15.698Z,1000.3
2017-05-29T18:38:23.249Z,1000.4
2017-05-29T18:48:30.877Z,1000.5
2017-05-29T18:58:38.634Z,1000.4
2017-05-29T19:08:46.487Z,1000.6
2017-05-29T19:18:54.394Z,1000.6
2017-05-29T19:29:02.280Z,1000.6
2017-05-29T19:39:10.259Z,1000.7
2017-05-29T19:49:18.276Z,1000.6
2017-05-29T19:59:26.369Z,1000.6
2017-05-29T20:09:34.522Z,1000.5
2017-05-29T20:19:42.652Z,1000
2017-05-29T20:29:50.754Z,1000.5
2017-05-29T20:39:58.847Z,1000.4
2017-05-29T20:50:06.936Z,1000.3
2017-05-29T21:00:15.015Z,1000.6
2017-05-29T21:10:23.136Z,1000.8
2017-05-29T21:20:31.269Z,1000.8
2017-05-29T21:30:39.455Z,1000.8
2017-05-29T21:40:47.666Z,1000.9
2017-05-29T21:50:55.991Z,1000.9
2017-05-29T22:01:04.414Z,1000.8
2017-05-29T22:11:12.748Z,1000.7
2017-05-29T22:21:21.111Z,1000.7
2017-05-29T22:31:29.516Z,1000.9
2017-05-29T22:41:37.915Z,1000.9
2017-05-29T22:51:46.382Z,1000.9
2017-05-29T23:01:54.847Z,1001
2017-05-29T23:12:03.349Z,1001.1
2017-05-29T23:22:11.877Z,1000.8
2017-05-29T23:32:20.513Z,1000.8
2017-05-29T23:42:29.140Z,1000.8
2017-05-29T23:52:37.809Z,1000.7
